Time;durP1;ratioP1;P1;durP2;ratioP2;P2;SDS_P1;SDS_P2;PMS_P1;PMS_P2;Temp;Humidity;BMP_temperature;BMP_pressure;BME280_temperature;BME280_humidity;BME280_pressure;Samples;Min_cycle;Max_cycle;Signal;HPM_P1;HPM_P2
2021/05/11 00:02:25;;;;;;;4.67;2.97;;;;;;;;;;5118869;28;20410;-83
2021/05/11 00:04:51;;;;;;;4.90;2.63;;;;;;;;;;5119800;28;20395;-82
2021/05/11 00:07:17;;;;;;;3.07;2.33;;;;;;;;;;5119217;28;20430;-84
2021/05/11 00:09:43;;;;;;;4.63;2.97;;;;;;;;;;5119684;28;20471;-81
2021/05/11 00:12:09;;;;;;;2.93;2.73;;;;;;;;;;5120155;28;20422;-82
2021/05/11 00:14:35;;;;;;;2.10;2.00;;;;;;;;;;5119731;28;20403;-82
2021/05/11 00:17:01;;;;;;;2.70;2.50;;;;;;;;;;5119048;28;20482;-83
2021/05/11 00:19:28;;;;;;;2.50;2.30;;;;;;;;;;5119635;28;20429;-83
2021/05/11 00:21:57;;;;;;;2.50;2.30;;;;;;;;;;5118274;28;20440;-80
2021/05/11 00:24:23;;;;;;;2.60;2.40;;;;;;;;;;5117001;28;20418;-83
2021/05/11 00:26:49;;;;;;;2.53;2.10;;;;;;;;;;5116067;28;20418;-82
2021/05/11 00:29:15;;;;;;;2.60;2.20;;;;;;;;;;5116857;28;20470;-81
2021/05/11 00:31:41;;;;;;;2.80;2.40;;;;;;;;;;5117084;28;20444;-82
2021/05/11 00:34:08;;;;;;;2.10;1.90;;;;;;;;;;5115630;28;20388;-82
2021/05/11 00:36:34;;;;;;;2.07;1.93;;;;;;;;;;5115910;28;20423;-82
2021/05/11 00:39:00;;;;;;;3.90;2.03;;;;;;;;;;5116749;28;20444;-83
2021/05/11 00:41:26;;;;;;;2.80;1.90;;;;;;;;;;5116506;28;20417;-81
2021/05/11 00:43:52;;;;;;;3.00;1.97;;;;;;;;;;5116734;28;20424;-82
2021/05/11 00:46:19;;;;;;;2.17;2.00;;;;;;;;;;5117083;28;20421;-82
2021/05/11 00:48:45;;;;;;;3.43;2.10;;;;;;;;;;5116298;28;20457;-83
2021/05/11 00:51:11;;;;;;;2.70;2.07;;;;;;;;;;5116879;28;20442;-83
2021/05/11 00:53:38;;;;;;;3.40;2.10;;;;;;;;;;5116672;28;20418;-83
2021/05/11 00:56:06;;;;;;;3.90;2.20;;;;;;;;;;5116475;28;20410;-81
2021/05/11 00:58:32;;;;;;;2.43;2.23;;;;;;;;;;5116346;28;20414;-82
2021/05/11 01:00:58;;;;;;;3.80;2.43;;;;;;;;;;5116745;28;20437;-82
2021/05/11 01:03:24;;;;;;;4.50;2.33;;;;;;;;;;5117697;28;20447;-81
2021/05/11 01:05:52;;;;;;;2.70;2.03;;;;;;;;;;5118287;28;20414;-80
2021/05/11 01:08:18;;;;;;;2.73;2.53;;;;;;;;;;5115877;28;20395;-85
2021/05/11 01:10:44;;;;;;;5.60;2.23;;;;;;;;;;5115924;28;20423;-83
2021/05/11 01:13:10;;;;;;;2.90;2.60;;;;;;;;;;5115868;28;20434;-81
2021/05/11 01:15:39;;;;;;;3.53;1.93;;;;;;;;;;5114850;28;20411;-82
2021/05/11 01:18:14;;;;;;;3.40;2.13;;;;;;;;;;5115287;28;20426;-83
2021/05/11 01:20:43;;;;;;;2.27;2.17;;;;;;;;;;5114999;28;20389;-82
2021/05/11 01:26:06;;;;;;;3.13;2.83;;;;;;;;;;5078086;28;20423;-83
2021/05/11 01:28:46;;;;;;;3.10;2.90;;;;;;;;;;5095828;28;20460;-82
2021/05/11 01:48:01;;;;;;;3.40;2.80;;;;;;;;;;5094792;28;20396;-83
2021/05/11 01:50:37;;;;;;;2.97;2.77;;;;;;;;;;5093213;28;20471;-82
2021/05/11 01:55:38;;;;;;;2.93;2.27;;;;;;;;;;5093850;28;20425;-83
2021/05/11 02:23:03;;;;;;;3.90;3.60;;;;;;;;;;5119428;28;20410;-82
2021/05/11 02:25:30;;;;;;;4.20;3.50;;;;;;;;;;5118940;28;20398;-83
2021/05/11 02:27:56;;;;;;;3.10;2.73;;;;;;;;;;5118778;28;20414;-83
2021/05/11 02:30:22;;;;;;;3.93;3.30;;;;;;;;;;5119330;28;20530;-82
2021/05/11 02:32:48;;;;;;;5.50;3.60;;;;;;;;;;5119589;28;20480;-82
2021/05/11 02:35:15;;;;;;;3.30;3.00;;;;;;;;;;5119489;28;20417;-80
2021/05/11 02:37:42;;;;;;;4.33;3.70;;;;;;;;;;5119434;28;20888;-81
2021/05/11 02:40:10;;;;;;;4.57;4.17;;;;;;;;;;5118915;28;20433;-82
2021/05/11 02:42:41;;;;;;;6.27;3.87;;;;;;;;;;5115723;28;20406;-83
2021/05/11 02:45:18;;;;;;;5.77;5.37;;;;;;;;;;5118723;28;20426;-83
2021/05/11 02:47:48;;;;;;;4.33;3.40;;;;;;;;;;5119499;28;20417;-82
2021/05/11 02:50:28;;;;;;;3.93;3.60;;;;;;;;;;5119414;28;20452;-83
2021/05/11 02:52:54;;;;;;;4.50;3.93;;;;;;;;;;5119766;28;20422;-82
2021/05/11 02:55:21;;;;;;;4.77;4.33;;;;;;;;;;5118985;28;20457;-82
2021/05/11 02:57:47;;;;;;;4.80;4.10;;;;;;;;;;5119055;28;20430;-83
2021/05/11 03:00:14;;;;;;;4.47;4.07;;;;;;;;;;5117377;28;20416;-83
2021/05/11 03:02:40;;;;;;;5.00;4.50;;;;;;;;;;5117162;28;20420;-82
2021/05/11 03:05:07;;;;;;;3.87;3.57;;;;;;;;;;5117802;28;20396;-82
2021/05/11 03:07:33;;;;;;;4.90;3.77;;;;;;;;;;5099803;28;20416;-83
2021/05/11 03:13:10;;;;;;;;;;;;;;;;;;;;;
2021/05/11 03:16:11;;;;;;;;;;;;;;;;;;;;;
2021/05/11 03:19:22;;;;;;;4.27;3.87;;;;;;;;;;5056609;28;20485;-85
2021/05/11 03:22:40;;;;;;;;;;;;;;;;;;;;;
2021/05/11 03:25:56;;;;;;;5.00;4.60;;;;;;;;;;5011624;28;20416;-86
2021/05/11 03:28:58;;;;;;;4.90;4.40;;;;;;;;;;5000872;28;20438;-85
2021/05/11 03:32:12;;;;;;;5.23;4.83;;;;;;;;;;4942721;29;20481;-86
2021/05/11 03:35:03;;;;;;;5.80;5.30;;;;;;;;;;4938319;29;20414;-85
2021/05/11 03:37:59;;;;;;;;;;;;;;;;;;;;;
2021/05/11 03:40:36;;;;;;;6.77;5.67;;;;;;;;;;4939940;29;20445;-86
2021/05/11 03:43:46;;;;;;;;;;;;;;;;;;;;;
2021/05/11 03:47:07;;;;;;;4.03;3.70;;;;;;;;;;4864546;29;20427;-85
2021/05/11 03:54:37;;;;;;;7.93;6.27;;;;;;;;;;4846530;29;20507;-87
2021/05/11 04:01:22;;;;;;;8.23;5.00;;;;;;;;;;4830766;29;20518;-85
2021/05/11 04:08:02;;;;;;;6.70;6.10;;;;;;;;;;4830671;29;20437;-85
2021/05/11 04:10:50;;;;;;;6.90;5.53;;;;;;;;;;4885213;29;20470;-86
2021/05/11 04:14:10;;;;;;;;;;;;;;;;;;;;;
2021/05/11 04:16:43;;;;;;;5.57;5.17;;;;;;;;;;4889743;29;20425;-85
2021/05/11 04:23:56;;;;;;;;;;;;;;;;;;;;;
2021/05/11 04:26:41;;;;;;;5.90;5.03;;;;;;;;;;4907446;29;20479;-86
2021/05/11 04:29:59;;;;;;;6.80;6.20;;;;;;;;;;4904854;29;21047;-86
2021/05/11 04:32:39;;;;;;;6.43;5.73;;;;;;;;;;4885732;29;20413;-86
2021/05/11 04:39:24;;;;;;;6.00;4.63;;;;;;;;;;4864562;29;20486;-87
2021/05/11 04:43:25;;;;;;;6.73;6.13;;;;;;;;;;4865432;29;20439;-87
2021/05/11 04:49:44;;;;;;;;;;;;;;;;;;;;;
2021/05/11 04:56:13;;;;;;;;;;;;;;;;;;;;;
2021/05/11 04:58:42;;;;;;;6.30;5.80;;;;;;;;;;5008998;28;20408;-86
2021/05/11 05:01:11;;;;;;;10.77;6.97;;;;;;;;;;4999777;28;20517;-84
2021/05/11 05:04:11;;;;;;;5.77;5.13;;;;;;;;;;4996814;28;20422;-84
2021/05/11 05:10:13;;;;;;;5.53;5.00;;;;;;;;;;4983761;28;20483;-85
2021/05/11 05:16:34;;;;;;;7.10;6.43;;;;;;;;;;4975576;28;20540;-85
2021/05/11 06:00:05;;;;;;;7.10;6.33;;;;;;;;;;5080778;22;20545;-86
2021/05/11 06:06:00;;;;;;;7.00;6.40;;;;;;;;;;5054577;28;20446;-87
2021/05/11 06:08:44;;;;;;;6.60;6.00;;;;;;;;;;5044661;28;20405;-88
2021/05/11 06:17:04;;;;;;;6.37;5.80;;;;;;;;;;5111227;28;20430;-86
2021/05/11 06:26:15;;;;;;;;;;;;;;;;;;;;;
2021/05/11 06:29:09;;;;;;;6.73;6.13;;;;;;;;;;5034968;28;20464;-86
2021/05/11 06:32:06;;;;;;;6.47;5.87;;;;;;;;;;5043779;28;20429;-86
2021/05/11 06:35:24;;;;;;;10.10;6.03;;;;;;;;;;5007068;28;20586;-86
2021/05/11 07:11:02;;;;;;;9.03;5.87;;;;;;;;;;4862224;29;21076;-84
2021/05/11 07:24:45;;;;;;;;;;;;;;;;;;;;;
2021/05/11 12:10:28;;;;;;;;;;;;;;;;;;;;;
2021/05/11 12:14:02;;;;;;;;;;;;;;;;;;;;;
2021/05/11 17:03:06;;;;;;;10.10;7.13;;;;;;;;;;5055645;28;20441;-86
2021/05/11 17:14:37;;;;;;;8.80;8.03;;;;;;;;;;5237505;22;20480;-87
2021/05/11 17:28:36;;;;;;;9.60;7.97;;;;;;;;;;3242915;26;20477;-86
2021/05/11 17:31:17;;;;;;;8.90;7.80;;;;;;;;;;5037614;28;20473;-85
2021/05/11 17:33:48;;;;;;;8.57;7.47;;;;;;;;;;5052263;28;20493;-86
2021/05/11 17:36:14;;;;;;;10.30;7.43;;;;;;;;;;5070499;28;20416;-85
2021/05/11 17:38:46;;;;;;;6.67;6.07;;;;;;;;;;5052013;28;20410;-84
2021/05/11 17:41:24;;;;;;;6.90;6.40;;;;;;;;;;5056063;28;20409;-86
2021/05/11 17:43:57;;;;;;;6.23;5.83;;;;;;;;;;5058288;28;20426;-85
2021/05/11 17:46:33;;;;;;;6.90;6.33;;;;;;;;;;5059874;28;20497;-86
2021/05/11 17:49:16;;;;;;;6.13;5.40;;;;;;;;;;5060066;28;20484;-86
2021/05/11 17:51:46;;;;;;;6.17;5.57;;;;;;;;;;5040912;28;20476;-85
2021/05/11 17:54:12;;;;;;;6.30;5.80;;;;;;;;;;5055052;28;20422;-87
2021/05/11 17:56:41;;;;;;;8.73;6.50;;;;;;;;;;5056688;28;20402;-86
2021/05/11 17:59:10;;;;;;;6.77;5.10;;;;;;;;;;5056329;28;20425;-86
2021/05/11 18:01:44;;;;;;;6.00;5.00;;;;;;;;;;5072944;28;20429;-85
2021/05/11 18:04:12;;;;;;;6.10;5.53;;;;;;;;;;5055679;28;20442;-85
2021/05/11 18:07:08;;;;;;;5.80;5.17;;;;;;;;;;5054318;28;20470;-85
2021/05/11 18:10:08;;;;;;;6.40;5.10;;;;;;;;;;5050377;28;20461;-86
2021/05/11 18:12:41;;;;;;;5.27;4.87;;;;;;;;;;5059701;28;20406;-86
2021/05/11 18:20:36;;;;;;;7.90;6.00;;;;;;;;;;4681653;22;20588;-85
2021/05/11 18:23:16;;;;;;;6.70;5.43;;;;;;;;;;5084457;28;20461;-85
2021/05/11 18:25:49;;;;;;;8.50;6.13;;;;;;;;;;5085027;28;20475;-85
2021/05/11 18:28:24;;;;;;;6.30;5.80;;;;;;;;;;5084405;28;20399;-85
2021/05/11 18:30:51;;;;;;;6.10;5.60;;;;;;;;;;5101377;28;20454;-85
2021/05/11 18:33:23;;;;;;;7.33;6.73;;;;;;;;;;5118563;28;20415;-84
2021/05/11 18:35:50;;;;;;;9.73;6.47;;;;;;;;;;5099768;28;20430;-85
2021/05/11 18:38:21;;;;;;;6.40;5.90;;;;;;;;;;5116244;28;20418;-84
2021/05/11 18:40:56;;;;;;;6.47;5.63;;;;;;;;;;5095720;28;20397;-84
2021/05/11 18:43:30;;;;;;;7.13;6.43;;;;;;;;;;5079459;28;20439;-84
2021/05/11 18:45:56;;;;;;;5.83;5.20;;;;;;;;;;5083272;28;20410;-85
2021/05/11 18:48:24;;;;;;;6.53;6.03;;;;;;;;;;5196807;22;20421;-87
2021/05/11 18:51:19;;;;;;;7.20;5.50;;;;;;;;;;5120557;28;20422;-85
2021/05/11 18:53:45;;;;;;;5.83;5.33;;;;;;;;;;5101620;28;20442;-85
2021/05/11 18:56:12;;;;;;;6.00;5.50;;;;;;;;;;5118885;28;20426;-86
2021/05/11 18:58:38;;;;;;;5.90;5.37;;;;;;;;;;5114250;28;20410;-84
2021/05/11 19:01:07;;;;;;;8.87;5.70;;;;;;;;;;5114753;28;20408;-84
2021/05/11 19:03:34;;;;;;;8.00;6.40;;;;;;;;;;5116672;28;20432;-84
2021/05/11 19:06:01;;;;;;;6.00;5.50;;;;;;;;;;5113484;28;20423;-84
2021/05/11 19:08:38;;;;;;;7.97;7.27;;;;;;;;;;5113450;28;20421;-86
2021/05/11 19:11:29;;;;;;;;;;;;;;;;;;;;;
2021/05/11 19:17:21;;;;;;;7.07;6.37;;;;;;;;;;5384092;22;20486;-85
2021/05/11 19:36:14;;;;;;;6.40;5.87;;;;;;;;;;2246925;22;20556;-86
2021/05/11 19:41:42;;;;;;;6.00;5.60;;;;;;;;;;5118945;22;20675;-85
2021/05/11 19:44:33;;;;;;;7.87;7.30;;;;;;;;;;5114808;28;20451;-85
2021/05/11 19:47:01;;;;;;;6.10;5.40;;;;;;;;;;5100591;28;20419;-84
2021/05/11 19:52:47;;;;;;;5.60;5.03;;;;;;;;;;5049100;28;20402;-84
2021/05/11 19:55:44;;;;;;;8.47;6.50;;;;;;;;;;5038276;28;20398;-86
2021/05/11 19:59:22;;;;;;;6.67;5.70;;;;;;;;;;4977406;28;20457;-86
2021/05/11 20:26:46;;;;;;;7.30;5.77;;;;;;;;;;1091281;26;20732;-86
2021/05/11 20:30:01;;;;;;;8.00;7.20;;;;;;;;;;5072934;28;20488;-84
2021/05/11 20:32:18;;;;;;;6.73;6.10;;;;;;;;;;5057747;28;20537;-84
2021/05/11 20:35:12;;;;;;;7.13;6.00;;;;;;;;;;5074861;28;20428;-85
2021/05/11 21:35:16;;;;;;;2.20;2.00;;;;;;;;;;5250054;22;20492;-85
2021/05/11 21:37:51;;;;;;;2.77;2.47;;;;;;;;;;5051657;28;20413;-83
2021/05/11 21:40:17;;;;;;;4.17;3.10;;;;;;;;;;5048774;28;20412;-84
2021/05/11 21:42:45;;;;;;;2.10;1.90;;;;;;;;;;5035030;28;20425;-85
2021/05/11 21:45:12;;;;;;;2.80;2.60;;;;;;;;;;5052821;28;20426;-83
2021/05/11 21:47:39;;;;;;;2.93;2.60;;;;;;;;;;5030421;28;20414;-85
2021/05/11 21:55:24;;;;;;;2.60;2.40;;;;;;;;;;5361666;22;20476;-85
2021/05/11 21:57:50;;;;;;;3.23;3.03;;;;;;;;;;5086420;28;20415;-83
2021/05/11 22:00:38;;;;;;;3.47;3.17;;;;;;;;;;5088310;28;20483;-84
2021/05/11 22:03:05;;;;;;;3.53;3.23;;;;;;;;;;5086570;28;20920;-84
2021/05/11 22:05:32;;;;;;;3.87;3.50;;;;;;;;;;5091514;28;20484;-82
2021/05/11 22:08:04;;;;;;;3.70;3.40;;;;;;;;;;5087879;28;20393;-83
2021/05/11 22:10:46;;;;;;;5.90;4.13;;;;;;;;;;5086681;28;20393;-82
2021/05/11 22:13:15;;;;;;;5.30;3.40;;;;;;;;;;5087567;28;20411;-83
2021/05/11 22:15:41;;;;;;;6.17;3.27;;;;;;;;;;5085863;28;20431;-81
2021/05/11 22:18:09;;;;;;;5.03;3.47;;;;;;;;;;5088267;28;20407;-82
2021/05/11 22:20:35;;;;;;;4.40;3.60;;;;;;;;;;5070805;28;20466;-83
2021/05/11 22:23:01;;;;;;;5.47;4.40;;;;;;;;;;5088749;28;20416;-83
2021/05/11 22:25:37;;;;;;;4.00;3.77;;;;;;;;;;5091370;28;20430;-82
2021/05/11 22:28:03;;;;;;;6.80;5.53;;;;;;;;;;5090150;28;20426;-84
2021/05/11 22:30:29;;;;;;;6.70;6.00;;;;;;;;;;5092103;28;20422;-83
2021/05/11 22:32:56;;;;;;;5.97;5.33;;;;;;;;;;5095537;28;20387;-83
2021/05/11 22:35:26;;;;;;;6.97;4.60;;;;;;;;;;5084561;28;20459;-83
2021/05/11 22:37:56;;;;;;;5.37;4.80;;;;;;;;;;5079581;28;20414;-84
2021/05/11 22:40:25;;;;;;;5.37;4.90;;;;;;;;;;5077975;28;20498;-83
2021/05/11 22:42:51;;;;;;;5.53;5.10;;;;;;;;;;5099030;28;20388;-84
2021/05/11 22:45:18;;;;;;;6.97;4.93;;;;;;;;;;5095173;28;20427;-84
2021/05/11 22:48:00;;;;;;;5.87;5.40;;;;;;;;;;5094320;28;20412;-83
2021/05/11 22:50:39;;;;;;;10.33;7.43;;;;;;;;;;5094005;28;20395;-85
2021/05/11 22:53:13;;;;;;;7.33;6.73;;;;;;;;;;5077568;28;20397;-83
2021/05/11 22:55:39;;;;;;;6.63;6.13;;;;;;;;;;5093754;28;20440;-83
2021/05/11 22:58:06;;;;;;;9.00;8.30;;;;;;;;;;5093321;28;20415;-83
2021/05/11 23:00:33;;;;;;;8.70;8.10;;;;;;;;;;5094313;28;20753;-85
2021/05/11 23:03:00;;;;;;;7.90;7.13;;;;;;;;;;5094231;28;20419;-83
2021/05/11 23:05:26;;;;;;;9.87;8.97;;;;;;;;;;5092520;28;20512;-84
2021/05/11 23:07:53;;;;;;;9.93;8.93;;;;;;;;;;5093904;28;20506;-83
2021/05/11 23:10:19;;;;;;;10.87;9.87;;;;;;;;;;5091371;28;20415;-83
2021/05/11 23:12:45;;;;;;;12.80;11.57;;;;;;;;;;5098117;28;20978;-82
2021/05/11 23:15:13;;;;;;;16.67;10.70;;;;;;;;;;5089559;28;20439;-83
2021/05/11 23:17:52;;;;;;;13.30;12.00;;;;;;;;;;5086723;28;20415;-83
2021/05/11 23:20:21;;;;;;;13.70;12.43;;;;;;;;;;5084642;28;20434;-82
2021/05/11 23:22:47;;;;;;;12.67;11.53;;;;;;;;;;5096450;28;20407;-84
2021/05/11 23:25:14;;;;;;;11.30;10.23;;;;;;;;;;5094366;28;20505;-83
2021/05/11 23:27:41;;;;;;;12.77;11.67;;;;;;;;;;5095159;28;20416;-83
2021/05/11 23:30:08;;;;;;;11.07;10.10;;;;;;;;;;5094446;28;20413;-82
2021/05/11 23:32:34;;;;;;;10.67;9.70;;;;;;;;;;5093024;28;20481;-82
2021/05/11 23:35:00;;;;;;;9.73;8.33;;;;;;;;;;5092705;28;20440;-82
2021/05/11 23:37:26;;;;;;;8.87;8.07;;;;;;;;;;5093571;28;20442;-83
2021/05/11 23:39:52;;;;;;;8.10;7.57;;;;;;;;;;5093639;28;20413;-82
2021/05/11 23:42:19;;;;;;;7.57;7.07;;;;;;;;;;5092797;28;20410;-83
2021/05/11 23:44:45;;;;;;;10.00;7.30;;;;;;;;;;5094809;28;20427;-84
2021/05/11 23:47:11;;;;;;;8.07;7.47;;;;;;;;;;5094768;28;20453;-81
2021/05/11 23:49:37;;;;;;;7.13;6.53;;;;;;;;;;5095430;28;20424;-82
2021/05/11 23:52:03;;;;;;;6.77;6.27;;;;;;;;;;5096433;28;20462;-84
2021/05/11 23:54:29;;;;;;;6.60;6.03;;;;;;;;;;5093233;28;20450;-84
2021/05/11 23:56:55;;;;;;;8.00;7.40;;;;;;;;;;5078456;28;20465;-83
2021/05/11 23:59:23;;;;;;;6.10;5.50;;;;;;;;;;5079601;28;20474;-83
